Time;durP1;ratioP1;P1;durP2;ratioP2;P2;SDS_P1;SDS_P2;PMS_P1;PMS_P2;Temp;Humidity;BMP_temperature;BMP_pressure;BME280_temperature;BME280_humidity;BME280_pressure;Samples;Min_cycle;Max_cycle;Signal;HPM_P1;HPM_P2
2022/10/09 00:00:41;;;;;;;17.60;15.80;;;;;20.80;101440.00;;;;2061665;28;20321;-56
2022/10/09 00:01:41;;;;;;;18.00;15.70;;;;;20.80;101433.00;;;;2062235;28;20643;-54
2022/10/09 00:02:42;;;;;;;18.10;15.37;;;;;20.70;101440.00;;;;2054361;28;20290;-56
2022/10/09 00:03:43;;;;;;;20.03;16.10;;;;;20.70;101444.00;;;;2054267;28;20212;-55
2022/10/09 00:04:44;;;;;;;17.10;14.90;;;;;20.70;101440.00;;;;2037456;28;20244;-54
2022/10/09 00:05:44;;;;;;;21.43;16.93;;;;;20.70;101458.00;;;;2044806;28;20227;-59
2022/10/09 00:06:44;;;;;;;19.93;15.53;;;;;20.70;101437.00;;;;2045365;28;20216;-60
2022/10/09 00:07:45;;;;;;;17.67;15.37;;;;;20.70;101442.00;;;;2046146;28;20216;-58
2022/10/09 00:08:45;;;;;;;18.00;15.17;;;;;20.70;101437.00;;;;2055510;28;20242;-59
2022/10/09 00:09:45;;;;;;;15.93;13.73;;;;;20.70;101439.00;;;;2053900;28;20219;-57
2022/10/09 00:10:46;;;;;;;17.27;14.40;;;;;20.70;101439.00;;;;2054126;28;20208;-57
2022/10/09 00:11:46;;;;;;;16.93;14.33;;;;;20.80;101436.00;;;;2053747;28;20270;-54
2022/10/09 00:12:47;;;;;;;15.97;14.27;;;;;20.70;101442.00;;;;2053625;28;20215;-52
2022/10/09 00:13:47;;;;;;;16.40;14.00;;;;;20.70;101444.00;;;;2053829;28;20216;-57
2022/10/09 00:14:48;;;;;;;15.83;13.83;;;;;20.70;101448.00;;;;2053749;28;20230;-57
2022/10/09 00:15:48;;;;;;;15.63;13.70;;;;;20.70;101450.00;;;;2053728;28;20298;-57
2022/10/09 00:16:48;;;;;;;15.37;13.40;;;;;20.70;101445.00;;;;2054352;28;20231;-56
2022/10/09 00:17:49;;;;;;;15.80;13.50;;;;;20.70;101449.00;;;;2054152;28;20211;-55
2022/10/09 00:18:49;;;;;;;15.70;13.57;;;;;20.70;101443.00;;;;2053849;28;20207;-53
2022/10/09 00:19:49;;;;;;;15.37;13.77;;;;;20.70;101446.00;;;;2045588;28;20289;-56
2022/10/09 00:20:50;;;;;;;14.77;12.40;;;;;20.70;101457.00;;;;2045621;28;20247;-57
2022/10/09 00:21:50;;;;;;;15.03;12.50;;;;;20.70;101449.00;;;;2053332;28;20212;-55
2022/10/09 00:22:50;;;;;;;13.23;11.77;;;;;20.70;101452.00;;;;2054101;28;20211;-57
2022/10/09 00:23:52;;;;;;;13.93;12.30;;;;;20.70;101447.00;;;;2053882;28;20218;-55
2022/10/09 00:24:52;;;;;;;14.50;13.00;;;;;20.70;101448.00;;;;2045229;28;20299;-55
2022/10/09 00:25:57;;;;;;;14.13;11.97;;;;;20.70;101450.00;;;;2045625;28;20279;-57
2022/10/09 00:26:57;;;;;;;12.95;11.55;;;;;20.70;101446.00;;;;2045430;28;20208;-56
2022/10/09 00:27:58;;;;;;;15.23;13.47;;;;;20.70;101449.00;;;;2045382;28;20224;-57
2022/10/09 00:28:58;;;;;;;14.77;12.43;;;;;20.70;101449.00;;;;2045913;28;20205;-57
2022/10/09 00:29:58;;;;;;;14.87;12.87;;;;;20.70;101457.00;;;;2047142;28;20751;-56
2022/10/09 00:31:02;;;;;;;14.03;11.50;;;;;20.70;101454.00;;;;2047099;28;20213;-57
2022/10/09 00:32:02;;;;;;;12.82;10.93;;;;;20.70;101455.00;;;;2045528;28;20247;-56
2022/10/09 00:33:03;;;;;;;12.73;11.30;;;;;20.70;101445.00;;;;2047615;28;20807;-56
2022/10/09 00:34:03;;;;;;;13.67;11.77;;;;;20.70;101451.00;;;;2055282;28;21328;-57
2022/10/09 00:35:04;;;;;;;13.20;11.60;;;;;20.70;101453.00;;;;2055244;28;20695;-53
2022/10/09 00:36:05;;;;;;;13.37;11.50;;;;;20.70;101444.00;;;;2055259;28;20664;-53
2022/10/09 00:37:05;;;;;;;13.07;11.68;;;;;20.70;101453.00;;;;2055376;28;20278;-57
2022/10/09 00:38:06;;;;;;;12.00;10.33;;;;;20.70;101447.00;;;;2047024;28;20849;-56
2022/10/09 00:39:06;;;;;;;13.33;10.87;;;;;20.70;101450.00;;;;2047110;28;20612;-55
2022/10/09 00:40:07;;;;;;;12.77;10.73;;;;;20.70;101451.00;;;;2055334;28;20216;-54
2022/10/09 00:41:07;;;;;;;13.00;10.73;;;;;20.70;101453.00;;;;2055667;28;20223;-56
2022/10/09 00:42:10;;;;;;;11.50;9.53;;;;;20.70;101452.00;;;;2045918;28;21263;-57
2022/10/09 00:43:18;;;;;;;11.00;9.80;;;;;20.60;101446.00;;;;2040149;29;20332;-56
2022/10/09 00:44:59;;;;;;;11.68;10.48;;;;;20.60;101448.00;;;;2043288;28;20259;-57
2022/10/09 00:45:59;;;;;;;10.43;9.30;;;;;20.60;101445.00;;;;2063073;28;20706;-55
2022/10/09 00:46:59;;;;;;;11.47;10.03;;;;;20.60;101430.00;;;;2063502;28;20211;-57
2022/10/09 00:48:01;;;;;;;11.90;10.60;;;;;20.60;101446.00;;;;2063419;28;20210;-57
2022/10/09 00:49:04;;;;;;;13.50;9.35;;;;;20.60;101443.00;;;;2062846;28;20222;-55
2022/10/09 00:50:20;;;;;;;10.48;9.48;;;;;20.60;101446.00;;;;2063037;28;20250;-53
2022/10/09 00:51:20;;;;;;;10.10;8.77;;;;;20.60;101448.00;;;;2062828;28;20218;-57
2022/10/09 00:52:21;;;;;;;12.07;9.47;;;;;20.60;101450.00;;;;2070106;28;20210;-56
2022/10/09 00:53:22;;;;;;;10.40;9.30;;;;;20.60;101452.00;;;;2064784;28;20679;-56
2022/10/09 00:54:23;;;;;;;11.23;9.27;;;;;20.60;101449.00;;;;2054830;28;20274;-57
2022/10/09 00:55:24;;;;;;;10.77;8.90;;;;;20.60;101457.00;;;;2054693;28;20376;-51
2022/10/09 00:56:24;;;;;;;10.83;9.13;;;;;20.60;101455.00;;;;2054601;28;20224;-56
2022/10/09 00:57:25;;;;;;;12.23;9.87;;;;;20.60;101450.00;;;;2054783;28;20274;-57
2022/10/09 00:58:25;;;;;;;12.20;9.60;;;;;20.60;101447.00;;;;2054878;28;20242;-56
2022/10/09 00:59:25;;;;;;;10.40;9.10;;;;;20.60;101447.00;;;;2047030;28;20747;-53
2022/10/09 01:00:26;;;;;;;11.73;9.47;;;;;20.60;101449.00;;;;2054900;28;20216;-54
2022/10/09 01:01:26;;;;;;;10.87;8.80;;;;;20.60;101455.00;;;;2055570;28;20239;-55
2022/10/09 01:02:26;;;;;;;11.10;9.90;;;;;20.60;101450.00;;;;2054640;28;20222;-57
2022/10/09 01:03:27;;;;;;;9.43;8.53;;;;;20.60;101448.00;;;;2055685;28;20242;-56
2022/10/09 01:04:27;;;;;;;10.20;8.50;;;;;20.60;101449.00;;;;2049427;28;20626;-57
2022/10/09 01:05:42;;;;;;;11.00;8.80;;;;;20.60;101454.00;;;;2053956;28;20643;-57
2022/10/09 01:06:45;;;;;;;8.90;8.00;;;;;20.60;101446.00;;;;2053723;28;20577;-56
2022/10/09 01:07:47;;;;;;;9.50;7.97;;;;;20.60;101451.00;;;;2054776;28;20227;-56
2022/10/09 01:08:57;;;;;;;11.77;9.15;;;;;20.60;101437.00;;;;2062376;28;20218;-57
2022/10/09 01:10:16;;;;;;;8.40;7.50;;;;;20.60;101465.00;;;;2033574;29;20272;-56
2022/10/09 01:11:36;;;;;;;10.38;7.85;;;;;20.60;101456.00;;;;2051228;28;20233;-55
2022/10/09 01:12:47;;;;;;;9.55;8.00;;;;;20.50;101451.00;;;;2061491;28;20215;-52
2022/10/09 01:13:59;;;;;;;9.13;7.78;;;;;20.60;101449.00;;;;2062991;28;20280;-57
2022/10/09 01:15:15;;;;;;;8.38;7.53;;;;;20.50;101460.00;;;;2058031;28;20219;-56
2022/10/09 01:16:20;;;;;;;11.05;8.18;;;;;20.60;101437.00;;;;2062836;28;20276;-55
2022/10/09 01:17:32;;;;;;;10.18;8.15;;;;;20.50;101446.00;;;;2062167;28;20215;-55
2022/10/09 01:19:00;;;;;;;8.88;7.45;;;;;20.50;101443.00;;;;2062179;28;20211;-57
2022/10/09 01:20:12;;;;;;;9.07;7.15;;;;;20.60;101445.00;;;;2061849;28;20215;-57
2022/10/09 01:21:15;;;;;;;9.15;7.50;;;;;20.50;101454.00;;;;2063967;28;20218;-57
2022/10/09 01:22:52;;;;;;;8.88;7.93;;;;;20.50;101438.00;;;;2054724;28;20219;-57
2022/10/09 01:24:01;;;;;;;8.48;6.60;;;;;20.50;101446.00;;;;2055436;28;20273;-57
2022/10/09 01:25:05;;;;;;;8.32;7.00;;;;;20.50;101445.00;;;;2062331;28;20305;-56
2022/10/09 01:26:17;;;;;;;7.75;6.93;;;;;20.50;101446.00;;;;2069654;28;20273;-55
2022/10/09 01:27:22;;;;;;;7.97;6.45;;;;;20.50;101440.00;;;;2068736;28;20218;-57
2022/10/09 01:28:23;;;;;;;8.35;6.82;;;;;20.50;101436.00;;;;2062180;28;20294;-57
2022/10/09 01:29:23;;;;;;;8.10;7.27;;;;;20.50;101441.00;;;;2062428;28;20222;-54
2022/10/09 01:30:24;;;;;;;8.23;7.17;;;;;20.50;101461.00;;;;2062539;28;20215;-56
2022/10/09 01:31:26;;;;;;;7.80;6.57;;;;;20.50;101446.00;;;;2062690;28;20269;-54
2022/10/09 01:32:30;;;;;;;7.90;6.75;;;;;20.50;101445.00;;;;2055960;28;20207;-59
2022/10/09 01:33:30;;;;;;;7.75;6.97;;;;;20.50;101439.00;;;;2046174;28;20220;-56
2022/10/09 01:34:31;;;;;;;7.00;6.30;;;;;20.50;101420.00;;;;2054424;28;20215;-58
2022/10/09 01:35:31;;;;;;;7.83;7.03;;;;;20.50;101445.00;;;;2062265;28;20717;-56
2022/10/09 01:36:31;;;;;;;7.53;6.50;;;;;20.50;101413.00;;;;2062146;28;20731;-55
2022/10/09 01:37:32;;;;;;;8.77;7.23;;;;;20.50;101438.00;;;;2060926;28;20258;-54
2022/10/09 01:38:33;;;;;;;9.17;6.90;;;;;20.50;101440.00;;;;2062422;28;20857;-57
2022/10/09 01:39:33;;;;;;;7.67;6.87;;;;;20.50;101437.00;;;;2053038;28;20742;-57
2022/10/09 01:40:33;;;;;;;6.90;6.03;;;;;20.20;101432.00;;;;2061962;28;20215;-58
2022/10/09 01:41:34;;;;;;;6.70;5.87;;;;;20.50;101425.00;;;;2053758;28;20216;-53
2022/10/09 01:42:34;;;;;;;7.13;6.43;;;;;20.50;101424.00;;;;2053729;28;20260;-54
2022/10/09 01:43:34;;;;;;;8.43;6.63;;;;;20.50;101424.00;;;;2045548;28;20311;-51
2022/10/09 01:44:35;;;;;;;7.13;5.80;;;;;20.50;101432.00;;;;2062260;28;20219;-55
2022/10/09 01:45:37;;;;;;;7.17;6.07;;;;;20.50;101430.00;;;;2063187;28;20659;-55
2022/10/09 01:46:37;;;;;;;6.80;5.63;;;;;20.50;101429.00;;;;2070665;28;20210;-57
2022/10/09 01:47:38;;;;;;;7.30;6.00;;;;;20.50;101436.00;;;;2070374;28;20737;-57
2022/10/09 01:48:38;;;;;;;6.50;5.50;;;;;20.50;101433.00;;;;2062580;28;20762;-53
2022/10/09 01:50:02;;;;;;;7.93;5.70;;;;;20.50;101432.00;;;;2057096;28;20262;-55
2022/10/09 01:51:03;;;;;;;6.75;5.55;;;;;20.50;101435.00;;;;2050130;28;20241;-54
2022/10/09 01:52:29;;;;;;;7.63;5.33;;;;;20.50;101428.00;;;;2052311;28;20232;-53
2022/10/09 01:53:29;;;;;;;7.05;5.88;;;;;20.50;101424.00;;;;2061305;28;20218;-54
2022/10/09 01:54:48;;;;;;;6.80;5.83;;;;;20.50;101413.00;;;;2063119;28;20731;-53
2022/10/09 01:56:08;;;;;;;7.95;5.88;;;;;20.50;101411.00;;;;2061915;28;20215;-59
2022/10/09 01:57:08;;;;;;;5.93;5.30;;;;;20.50;101412.00;;;;2066518;28;20218;-56
2022/10/09 01:58:30;;;;;;;5.83;5.23;;;;;20.40;101426.00;;;;2062354;28;20746;-54
2022/10/09 01:59:30;;;;;;;7.60;5.60;;;;;20.40;101420.00;;;;2065246;28;20249;-53
2022/10/09 02:00:33;;;;;;;6.03;5.43;;;;;20.40;101425.00;;;;2053921;28;20246;-53
2022/10/09 02:01:34;;;;;;;6.85;6.15;;;;;20.40;101420.00;;;;2038345;28;20299;-55
2022/10/09 02:02:35;;;;;;;5.60;4.97;;;;;20.50;101423.00;;;;2037706;28;20272;-56
2022/10/09 02:03:35;;;;;;;5.60;5.00;;;;;20.40;101403.00;;;;2046503;28;20448;-59
2022/10/09 02:04:39;;;;;;;5.73;5.23;;;;;20.40;101421.00;;;;2051397;28;20814;-57
2022/10/09 02:05:39;;;;;;;5.60;5.00;;;;;20.40;101415.00;;;;2045921;28;20291;-58
2022/10/09 02:06:40;;;;;;;7.70;5.53;;;;;20.40;101419.00;;;;2054225;28;20211;-54
2022/10/09 02:07:40;;;;;;;7.93;5.20;;;;;20.40;101411.00;;;;2054363;28;20247;-53
2022/10/09 02:08:40;;;;;;;5.90;5.30;;;;;20.40;101413.00;;;;2054196;28;21158;-54
2022/10/09 02:09:41;;;;;;;5.97;4.70;;;;;20.40;101410.00;;;;2054260;28;20299;-54
2022/10/09 02:10:41;;;;;;;5.73;5.13;;;;;20.40;101414.00;;;;2046406;28;20219;-55
2022/10/09 02:11:43;;;;;;;5.07;4.57;;;;;20.40;101411.00;;;;2038024;29;20212;-61
2022/10/09 02:12:46;;;;;;;6.90;4.93;;;;;20.20;101409.00;;;;2038134;28;20243;-57
2022/10/09 02:13:48;;;;;;;5.90;5.30;;;;;20.40;101394.00;;;;2054430;28;20680;-54
2022/10/09 02:14:48;;;;;;;5.40;4.90;;;;;20.40;101405.00;;;;2061534;28;20218;-57
2022/10/09 02:15:51;;;;;;;6.40;5.37;;;;;20.40;101406.00;;;;2061550;28;20247;-54
2022/10/09 02:17:10;;;;;;;6.88;4.35;;;;;20.40;101404.00;;;;2061323;28;20249;-53
2022/10/09 02:18:12;;;;;;;4.72;4.10;;;;;20.40;101419.00;;;;2060896;28;20736;-55
2022/10/09 02:19:20;;;;;;;5.15;4.47;;;;;20.40;101403.00;;;;2060388;28;20230;-56
2022/10/09 02:20:26;;;;;;;6.18;4.78;;;;;20.40;101406.00;;;;2052981;28;20806;-59
2022/10/09 02:21:36;;;;;;;5.97;4.57;;;;;20.40;101413.00;;;;2053585;28;20326;-57
2022/10/09 02:22:36;;;;;;;6.10;4.97;;;;;20.40;101410.00;;;;2051434;28;20215;-56
2022/10/09 02:23:37;;;;;;;5.93;4.83;;;;;20.40;101394.00;;;;2038266;28;20739;-55
2022/10/09 02:24:38;;;;;;;5.80;4.80;;;;;20.40;101403.00;;;;2037934;29;20709;-53
2022/10/09 02:25:38;;;;;;;6.33;5.23;;;;;20.10;101399.00;;;;2037359;28;20243;-53
2022/10/09 02:26:38;;;;;;;5.30;4.80;;;;;20.40;101393.00;;;;2053973;28;20459;-58
2022/10/09 02:27:39;;;;;;;5.23;4.57;;;;;20.40;101395.00;;;;2053838;28;20242;-56
2022/10/09 02:28:39;;;;;;;5.17;4.60;;;;;20.40;101391.00;;;;2053525;28;20263;-54
2022/10/09 02:29:40;;;;;;;5.67;4.90;;;;;20.40;101401.00;;;;2053839;28;20239;-53
2022/10/09 02:30:55;;;;;;;6.15;4.45;;;;;20.40;101405.00;;;;2061775;28;20218;-60
2022/10/09 02:31:55;;;;;;;5.32;4.03;;;;;20.40;101404.00;;;;2060845;28;20309;-59
2022/10/09 02:32:55;;;;;;;4.97;4.47;;;;;20.40;101410.00;;;;2054267;28;20694;-55
2022/10/09 02:34:07;;;;;;;4.73;4.23;;;;;20.40;101399.00;;;;2045909;28;20593;-54
2022/10/09 02:35:07;;;;;;;5.15;4.63;;;;;20.40;101399.00;;;;2059258;28;20262;-59
2022/10/09 02:36:08;;;;;;;5.60;4.90;;;;;20.40;101394.00;;;;2067046;28;20238;-57
2022/10/09 02:37:08;;;;;;;5.03;4.47;;;;;20.40;101403.00;;;;2061713;28;20245;-55
2022/10/09 02:38:08;;;;;;;5.57;4.50;;;;;20.40;101407.00;;;;2054870;28;20226;-54
2022/10/09 02:39:09;;;;;;;4.83;3.97;;;;;20.40;101394.00;;;;2054613;28;20215;-55
2022/10/09 02:40:09;;;;;;;4.67;3.97;;;;;20.40;101397.00;;;;2054507;28;20218;-59
2022/10/09 02:41:10;;;;;;;5.50;4.30;;;;;20.40;101400.00;;;;2054856;28;20227;-59
2022/10/09 02:42:10;;;;;;;5.67;4.90;;;;;20.40;101400.00;;;;2053828;28;20778;-55
2022/10/09 02:43:10;;;;;;;5.17;4.67;;;;;20.40;101403.00;;;;2054334;28;20211;-56
2022/10/09 02:44:11;;;;;;;4.33;3.93;;;;;20.40;101400.00;;;;2054709;28;20720;-56
2022/10/09 02:45:11;;;;;;;4.90;4.20;;;;;20.40;101400.00;;;;2053301;28;20699;-57
2022/10/09 02:46:12;;;;;;;4.70;4.30;;;;;20.30;101407.00;;;;2053768;28;20224;-58
2022/10/09 02:47:12;;;;;;;4.50;3.60;;;;;20.40;101400.00;;;;2054140;28;20223;-55
2022/10/09 02:48:12;;;;;;;7.20;4.47;;;;;20.40;101400.00;;;;2054841;28;21000;-55
2022/10/09 02:49:13;;;;;;;4.60;3.57;;;;;20.30;101397.00;;;;2061535;28;20238;-54
2022/10/09 02:50:13;;;;;;;4.97;3.83;;;;;20.30;101399.00;;;;2062598;28;20210;-54
2022/10/09 02:51:13;;;;;;;4.13;3.73;;;;;20.30;101392.00;;;;2062624;28;20230;-53
2022/10/09 02:52:15;;;;;;;5.55;4.03;;;;;20.30;101396.00;;;;2061551;28;20231;-60
2022/10/09 02:53:15;;;;;;;4.53;3.90;;;;;20.30;101399.00;;;;2059579;28;20243;-55
2022/10/09 02:54:15;;;;;;;4.83;4.33;;;;;20.30;101400.00;;;;2054486;28;20262;-56
2022/10/09 02:55:16;;;;;;;4.30;3.53;;;;;20.30;101398.00;;;;2054611;28;20216;-55
2022/10/09 02:56:16;;;;;;;6.00;4.10;;;;;20.30;101392.00;;;;2054309;28;20224;-58
2022/10/09 02:57:16;;;;;;;4.80;3.93;;;;;20.30;101395.00;;;;2054706;28;20216;-57
2022/10/09 02:58:17;;;;;;;3.90;3.50;;;;;20.30;101396.00;;;;2053989;28;20223;-56
2022/10/09 02:59:17;;;;;;;4.40;3.83;;;;;20.30;101399.00;;;;2054657;28;20226;-54
2022/10/09 03:00:17;;;;;;;4.80;3.60;;;;;20.30;101389.00;;;;2054675;28;20803;-55
2022/10/09 03:01:18;;;;;;;4.93;3.57;;;;;20.30;101386.00;;;;2054622;28;20223;-55
2022/10/09 03:02:18;;;;;;;5.30;3.77;;;;;20.30;101395.00;;;;2057041;28;20809;-54
2022/10/09 03:03:19;;;;;;;5.43;4.53;;;;;20.30;101404.00;;;;2054588;28;20221;-58
2022/10/09 03:04:19;;;;;;;4.47;3.67;;;;;20.30;101395.00;;;;2054477;28;20219;-55
2022/10/09 03:05:19;;;;;;;4.60;4.00;;;;;20.30;101390.00;;;;2054162;28;20215;-55
2022/10/09 03:06:22;;;;;;;4.43;3.80;;;;;20.30;101389.00;;;;2054458;28;20235;-55
2022/10/09 03:07:22;;;;;;;4.32;3.92;;;;;20.30;101393.00;;;;2054655;28;20262;-54
2022/10/09 03:08:23;;;;;;;3.90;3.60;;;;;20.30;101387.00;;;;2059918;28;20261;-53
2022/10/09 03:09:23;;;;;;;5.20;3.70;;;;;20.30;101400.00;;;;2062791;28;20211;-57
2022/10/09 03:10:23;;;;;;;3.73;3.20;;;;;20.30;101389.00;;;;2062679;28;20214;-56
2022/10/09 03:11:24;;;;;;;4.03;3.63;;;;;20.30;101395.00;;;;2062457;28;20633;-54
2022/10/09 03:12:24;;;;;;;4.03;3.40;;;;;20.30;101397.00;;;;2061257;28;20688;-59
2022/10/09 03:13:24;;;;;;;3.73;3.33;;;;;20.30;101395.00;;;;2062511;28;20306;-55
2022/10/09 03:14:25;;;;;;;4.47;3.80;;;;;20.30;101386.00;;;;2062450;28;20266;-61
2022/10/09 03:15:25;;;;;;;4.33;3.80;;;;;20.30;101387.00;;;;2062393;28;20223;-56
2022/10/09 03:16:25;;;;;;;3.40;3.10;;;;;20.30;101383.00;;;;2062464;28;20255;-60
2022/10/09 03:17:26;;;;;;;4.10;3.13;;;;;20.30;101386.00;;;;2062230;28;20222;-55
2022/10/09 03:18:26;;;;;;;4.33;3.60;;;;;20.30;101393.00;;;;2062347;28;20652;-55
2022/10/09 03:19:26;;;;;;;3.90;3.10;;;;;20.30;101388.00;;;;2062016;28;20707;-54
2022/10/09 03:20:28;;;;;;;3.57;3.27;;;;;20.30;101393.00;;;;2062492;28;20210;-54
2022/10/09 03:21:29;;;;;;;5.13;3.55;;;;;20.30;101384.00;;;;2062468;28;20269;-54
2022/10/09 03:22:29;;;;;;;4.70;3.40;;;;;20.30;101388.00;;;;2061536;28;20607;-54
2022/10/09 03:23:29;;;;;;;4.80;3.90;;;;;20.30;101378.00;;;;2062525;28;20222;-55
2022/10/09 03:24:30;;;;;;;3.50;3.20;;;;;20.30;101385.00;;;;2062163;28;20219;-57
2022/10/09 03:25:31;;;;;;;5.87;3.63;;;;;20.20;101375.00;;;;2062388;28;20261;-54
2022/10/09 03:26:31;;;;;;;3.90;3.30;;;;;20.20;101378.00;;;;2062254;28;20572;-55
2022/10/09 03:27:31;;;;;;;4.50;3.70;;;;;20.20;101373.00;;;;2062472;28;20976;-55
2022/10/09 03:28:34;;;;;;;4.07;3.67;;;;;20.20;101381.00;;;;2061524;28;20223;-53
2022/10/09 03:29:34;;;;;;;3.67;3.25;;;;;20.20;101415.00;;;;2055767;28;20223;-55
2022/10/09 03:30:39;;;;;;;3.93;3.40;;;;;20.20;101379.00;;;;2058482;28;20611;-61
2022/10/09 03:31:39;;;;;;;4.05;2.90;;;;;20.20;101387.00;;;;2054350;28;20235;-54
2022/10/09 03:32:40;;;;;;;3.50;3.20;;;;;20.20;101382.00;;;;2054634;28;20222;-53
2022/10/09 03:33:40;;;;;;;3.83;3.43;;;;;20.30;101380.00;;;;2053983;28;20208;-56
2022/10/09 03:34:41;;;;;;;3.00;2.70;;;;;20.20;101383.00;;;;2053888;28;20215;-56
2022/10/09 03:35:41;;;;;;;4.30;3.90;;;;;20.20;101377.00;;;;2053607;28;20684;-53
2022/10/09 03:36:41;;;;;;;3.23;2.90;;;;;20.20;101382.00;;;;2060549;28;20880;-55
2022/10/09 03:37:41;;;;;;;3.87;3.10;;;;;20.30;101392.00;;;;2061164;28;20214;-54
2022/10/09 03:38:42;;;;;;;3.93;3.33;;;;;20.20;101382.00;;;;2053671;28;20564;-56
2022/10/09 03:39:42;;;;;;;3.20;2.90;;;;;20.20;101385.00;;;;2053947;28;20683;-55
2022/10/09 03:40:43;;;;;;;4.77;3.33;;;;;20.20;101385.00;;;;2054569;28;20211;-61
2022/10/09 03:41:43;;;;;;;4.50;3.37;;;;;20.20;101383.00;;;;2053835;28;20211;-57
2022/10/09 03:42:43;;;;;;;4.93;3.17;;;;;20.20;101383.00;;;;2053643;28;20290;-55
2022/10/09 03:43:44;;;;;;;4.67;3.67;;;;;20.20;101385.00;;;;2054425;28;20216;-55
2022/10/09 03:44:44;;;;;;;3.00;2.77;;;;;20.20;101387.00;;;;2054333;28;20222;-59
2022/10/09 03:45:44;;;;;;;3.93;3.30;;;;;20.20;101388.00;;;;2054473;28;20216;-59
2022/10/09 03:46:45;;;;;;;4.00;3.60;;;;;20.20;101381.00;;;;2053721;28;20219;-61
2022/10/09 03:47:45;;;;;;;3.77;3.07;;;;;20.20;101381.00;;;;2054539;28;21067;-57
2022/10/09 03:48:46;;;;;;;3.87;3.40;;;;;20.20;101384.00;;;;2059454;28;20464;-59
2022/10/09 03:49:46;;;;;;;2.83;2.63;;;;;20.20;101383.00;;;;2058118;28;20226;-57
2022/10/09 03:50:46;;;;;;;3.70;3.07;;;;;20.20;101388.00;;;;2055728;28;20250;-53
2022/10/09 03:51:47;;;;;;;5.30;3.20;;;;;20.20;101393.00;;;;2059971;28;20203;-55
2022/10/09 03:52:47;;;;;;;3.67;3.37;;;;;20.20;101377.00;;;;2054372;28;20218;-53
2022/10/09 03:53:47;;;;;;;4.17;3.53;;;;;20.20;101381.00;;;;2054725;28;20211;-57
2022/10/09 03:54:48;;;;;;;5.70;3.83;;;;;20.20;101384.00;;;;2046085;28;20215;-56
2022/10/09 03:55:48;;;;;;;3.47;3.00;;;;;20.20;101382.00;;;;2053722;28;20215;-57
2022/10/09 03:56:48;;;;;;;3.23;2.93;;;;;20.20;101386.00;;;;2053969;28;20215;-55
2022/10/09 03:57:49;;;;;;;3.63;3.33;;;;;20.20;101384.00;;;;2056929;28;20250;-55
2022/10/09 03:58:49;;;;;;;3.23;2.93;;;;;20.20;101383.00;;;;2054214;28;20295;-55
2022/10/09 03:59:49;;;;;;;3.23;2.80;;;;;20.20;101383.00;;;;2054353;28;20224;-55
2022/10/09 04:00:51;;;;;;;3.53;2.77;;;;;20.20;101382.00;;;;2054328;28;20219;-59
2022/10/09 04:01:51;;;;;;;3.53;2.80;;;;;20.20;101384.00;;;;2061209;28;20226;-54
2022/10/09 04:02:51;;;;;;;4.43;3.13;;;;;20.20;101389.00;;;;2069729;28;20221;-54
2022/10/09 04:03:52;;;;;;;3.47;2.73;;;;;20.20;101285.00;;;;2062240;28;20579;-59
2022/10/09 04:04:52;;;;;;;3.10;2.80;;;;;20.20;101383.00;;;;2063778;28;20230;-58
2022/10/09 04:05:52;;;;;;;3.53;2.70;;;;;20.20;101381.00;;;;2063801;28;20207;-56
2022/10/09 04:06:53;;;;;;;3.37;2.60;;;;;20.20;101382.00;;;;2063685;28;20218;-54
2022/10/09 04:07:53;;;;;;;3.00;2.70;;;;;20.20;101387.00;;;;2063888;28;20210;-55
2022/10/09 04:08:53;;;;;;;3.40;3.10;;;;;20.20;101380.00;;;;2063840;28;20208;-55
2022/10/09 04:09:54;;;;;;;3.50;3.00;;;;;20.20;101391.00;;;;2059525;28;20199;-53
2022/10/09 04:10:56;;;;;;;2.77;2.37;;;;;20.20;101386.00;;;;2061811;28;20210;-62
2022/10/09 04:11:56;;;;;;;3.10;2.80;;;;;20.20;101388.00;;;;2054172;28;20647;-59
2022/10/09 04:12:57;;;;;;;3.10;2.80;;;;;20.20;101382.00;;;;2055330;28;20250;-56
2022/10/09 04:13:57;;;;;;;3.90;3.50;;;;;20.20;101393.00;;;;2055701;28;20215;-56
2022/10/09 04:14:57;;;;;;;3.40;2.97;;;;;20.20;101390.00;;;;2055619;28;20223;-55
2022/10/09 04:15:58;;;;;;;3.40;3.00;;;;;20.20;101386.00;;;;2055709;28;20231;-54
2022/10/09 04:16:58;;;;;;;2.87;2.60;;;;;20.20;101383.00;;;;2054770;28;20265;-56
2022/10/09 04:17:58;;;;;;;3.33;2.97;;;;;20.10;101388.00;;;;2055684;28;20212;-55
2022/10/09 04:18:59;;;;;;;3.10;2.80;;;;;20.20;101381.00;;;;2055735;28;20215;-57
2022/10/09 04:19:59;;;;;;;3.30;2.77;;;;;20.20;101385.00;;;;2055793;28;20242;-58
2022/10/09 04:20:59;;;;;;;2.63;2.43;;;;;20.10;101380.00;;;;2055562;28;20612;-54
2022/10/09 04:22:00;;;;;;;3.37;2.73;;;;;20.20;101380.00;;;;2054851;28;20593;-55
2022/10/09 04:23:00;;;;;;;2.83;2.53;;;;;20.20;101383.00;;;;2056071;28;20703;-55
2022/10/09 04:24:02;;;;;;;3.60;3.23;;;;;20.10;101379.00;;;;2058579;28;20804;-54
2022/10/09 04:25:02;;;;;;;3.20;2.90;;;;;20.20;101380.00;;;;2055893;28;20211;-54
2022/10/09 04:26:03;;;;;;;3.47;2.90;;;;;20.10;101375.00;;;;2055673;28;20246;-54
2022/10/09 04:27:03;;;;;;;3.47;2.43;;;;;20.10;101390.00;;;;2055568;28;20330;-56
2022/10/09 04:28:03;;;;;;;3.17;2.70;;;;;20.10;101381.00;;;;2055632;28;21000;-57
2022/10/09 04:29:04;;;;;;;3.73;2.87;;;;;20.10;101419.00;;;;2055695;28;20776;-56
2022/10/09 04:30:04;;;;;;;3.17;2.83;;;;;20.10;101383.00;;;;2055373;28;20751;-61
2022/10/09 04:31:05;;;;;;;2.63;2.43;;;;;20.10;101381.00;;;;2055624;28;20731;-57
2022/10/09 04:32:05;;;;;;;3.83;2.67;;;;;20.10;101382.00;;;;2054700;28;20820;-55
2022/10/09 04:33:06;;;;;;;3.10;2.80;;;;;20.10;101378.00;;;;2055393;28;20731;-58
2022/10/09 04:34:06;;;;;;;2.90;2.60;;;;;20.10;101370.00;;;;2055707;28;20215;-56
2022/10/09 04:35:07;;;;;;;3.57;2.60;;;;;20.10;101377.00;;;;2054948;28;20256;-55
2022/10/09 04:36:07;;;;;;;3.37;3.07;;;;;20.10;101375.00;;;;2055899;28;20218;-54
2022/10/09 04:37:07;;;;;;;2.37;2.17;;;;;20.10;101379.00;;;;2055326;28;20224;-53
2022/10/09 04:38:08;;;;;;;2.83;2.40;;;;;20.10;101373.00;;;;2055738;28;20215;-60
2022/10/09 04:39:08;;;;;;;2.57;2.37;;;;;20.10;101380.00;;;;2055579;28;20234;-57
2022/10/09 04:40:09;;;;;;;2.50;2.30;;;;;20.10;101376.00;;;;2055626;28;20216;-54
2022/10/09 04:41:09;;;;;;;7.00;2.60;;;;;20.10;101371.00;;;;2055683;28;20226;-53
2022/10/09 04:42:09;;;;;;;3.93;2.43;;;;;20.10;101376.00;;;;2056175;28;20218;-56
2022/10/09 04:43:10;;;;;;;2.90;2.70;;;;;20.10;101369.00;;;;2061857;28;20305;-55
2022/10/09 04:44:10;;;;;;;2.70;2.50;;;;;20.10;101376.00;;;;2062984;28;20268;-59
2022/10/09 04:45:10;;;;;;;2.97;2.40;;;;;20.10;101370.00;;;;2061529;28;20219;-57
2022/10/09 04:46:12;;;;;;;3.07;2.53;;;;;20.10;101367.00;;;;2054777;28;20676;-55
2022/10/09 04:47:12;;;;;;;3.20;2.85;;;;;20.10;101365.00;;;;2062123;28;20216;-56
2022/10/09 04:48:12;;;;;;;3.00;2.43;;;;;19.80;101366.00;;;;2062563;28;20227;-59
2022/10/09 04:49:13;;;;;;;2.60;2.40;;;;;20.10;101364.00;;;;2054910;28;20234;-58
2022/10/09 04:50:14;;;;;;;2.60;2.20;;;;;20.10;101366.00;;;;2055411;28;20239;-56
2022/10/09 04:51:15;;;;;;;2.30;2.10;;;;;20.10;101368.00;;;;2054655;28;20254;-57
2022/10/09 04:52:15;;;;;;;2.60;2.27;;;;;20.10;101367.00;;;;2062007;28;20703;-58
2022/10/09 04:53:15;;;;;;;2.93;2.63;;;;;20.10;101369.00;;;;2061713;28;20493;-55
2022/10/09 04:54:16;;;;;;;2.43;1.93;;;;;20.10;101376.00;;;;2055388;28;20223;-57
2022/10/09 04:55:16;;;;;;;2.97;2.50;;;;;20.10;101368.00;;;;2055188;28;20219;-57
2022/10/09 04:56:18;;;;;;;2.50;2.00;;;;;20.10;101369.00;;;;2055692;28;20337;-56
2022/10/09 04:57:18;;;;;;;2.60;2.40;;;;;20.10;101364.00;;;;2055816;28;20270;-54
2022/10/09 04:58:19;;;;;;;6.80;2.60;;;;;20.10;101366.00;;;;2055386;28;20259;-55
2022/10/09 04:59:19;;;;;;;2.40;2.20;;;;;20.10;101372.00;;;;2055669;28;20234;-57
2022/10/09 05:00:19;;;;;;;2.37;1.83;;;;;20.00;101363.00;;;;2055231;28;20223;-57
2022/10/09 05:01:24;;;;;;;2.70;2.30;;;;;20.10;101372.00;;;;2055564;28;20235;-55
2022/10/09 05:02:25;;;;;;;2.30;2.10;;;;;20.00;101375.00;;;;2054203;28;20310;-55
2022/10/09 05:03:25;;;;;;;3.57;2.80;;;;;20.10;101377.00;;;;2062650;28;20211;-56
2022/10/09 05:04:25;;;;;;;3.50;2.30;;;;;20.10;101368.00;;;;2063134;28;20223;-57
2022/10/09 05:05:26;;;;;;;3.27;2.30;;;;;20.00;101372.00;;;;2063098;28;20215;-60